Piper, Iowa
Current Conditions -  °F | °C
As of 4:15 PM on Friday 24 Oct 2014 (Local Time) from KCIN Reporting Station
Clear Clear  
Wind Chill: 75°   Ceiling: Unl
Heat Index: 75°   Visibility: 10mi
Dew Point: 54°   Wind: 8mph
Humidity: 47%   Direction: 280°W
Pressure: 29.88"   Gusts: NA
Location:  42.385°N, 94.6304°W
Report Text: KCIN 242115Z AUTO 28007KT 10SM CLR 24/12 A2988 RMK AO2
Loading
Personal Weather Stations






























Interactive Weather Map
Tropical Storm Tracking
New forecast layout! Learn more

10-Day Weather Forecast

Advertisements
Track Severe Weather on mobile